sensor_id;sensor_type;location;lat;lon;timestamp;temperature;humidity
20722;DHT22;10522;52.198;9.890;2023-05-02T00:02:10;10.80;99.90
20722;DHT22;10522;52.198;9.890;2023-05-02T00:04:35;10.80;99.90
20722;DHT22;10522;52.198;9.890;2023-05-02T00:07:01;10.80;99.90
20722;DHT22;10522;52.198;9.890;2023-05-02T00:09:28;10.70;99.90
20722;DHT22;10522;52.198;9.890;2023-05-02T00:11:53;10.70;99.90
20722;DHT22;10522;52.198;9.890;2023-05-02T00:14:19;10.60;99.90
20722;DHT22;10522;52.198;9.890;2023-05-02T00:16:44;10.60;99.90
20722;DHT22;10522;52.198;9.890;2023-05-02T00:19:10;10.70;99.90
20722;DHT22;10522;52.198;9.890;2023-05-02T00:21:36;10.70;99.90
20722;DHT22;10522;52.198;9.890;2023-05-02T00:24:01;10.70;99.90
20722;DHT22;10522;52.198;9.890;2023-05-02T00:26:27;10.70;99.90
20722;DHT22;10522;52.198;9.890;2023-05-02T00:28:53;10.70;99.90
20722;DHT22;10522;52.198;9.890;2023-05-02T00:31:19;10.70;99.90
20722;DHT22;10522;52.198;9.890;2023-05-02T00:33:44;10.70;99.90
20722;DHT22;10522;52.198;9.890;2023-05-02T00:36:17;10.70;99.90
20722;DHT22;10522;52.198;9.890;2023-05-02T00:38:43;10.60;99.90
20722;DHT22;10522;52.198;9.890;2023-05-02T00:41:09;10.70;99.90
20722;DHT22;10522;52.198;9.890;2023-05-02T00:43:35;10.70;99.90
20722;DHT22;10522;52.198;9.890;2023-05-02T00:46:03;10.80;99.90
20722;DHT22;10522;52.198;9.890;2023-05-02T00:48:29;10.80;99.90
20722;DHT22;10522;52.198;9.890;2023-05-02T00:50:55;10.70;99.90
20722;DHT22;10522;52.198;9.890;2023-05-02T00:53:21;10.90;99.90
20722;DHT22;10522;52.198;9.890;2023-05-02T00:55:47;10.90;99.90
20722;DHT22;10522;52.198;9.890;2023-05-02T00:58:15;10.90;99.90
20722;DHT22;10522;52.198;9.890;2023-05-02T01:11:51;10.80;99.90
20722;DHT22;10522;52.198;9.890;2023-05-02T01:14:18;10.90;99.90
20722;DHT22;10522;52.198;9.890;2023-05-02T01:16:46;10.90;99.90
20722;DHT22;10522;52.198;9.890;2023-05-02T01:19:21;10.90;99.90
20722;DHT22;10522;52.198;9.890;2023-05-02T01:21:51;10.90;99.90
20722;DHT22;10522;52.198;9.890;2023-05-02T01:24:25;10.90;99.90
20722;DHT22;10522;52.198;9.890;2023-05-02T01:27:30;10.90;99.90
20722;DHT22;10522;52.198;9.890;2023-05-02T01:29:59;10.80;99.90
20722;DHT22;10522;52.198;9.890;2023-05-02T01:32:27;10.80;99.90
20722;DHT22;10522;52.198;9.890;2023-05-02T01:34:56;10.70;99.90
20722;DHT22;10522;52.198;9.890;2023-05-02T01:37:23;10.70;99.90
20722;DHT22;10522;52.198;9.890;2023-05-02T01:39:51;10.60;99.90
20722;DHT22;10522;52.198;9.890;2023-05-02T01:42:19;10.70;99.90
20722;DHT22;10522;52.198;9.890;2023-05-02T01:44:46;10.60;99.90
20722;DHT22;10522;52.198;9.890;2023-05-02T01:47:12;10.50;99.90
20722;DHT22;10522;52.198;9.890;2023-05-02T01:49:40;10.40;99.90
20722;DHT22;10522;52.198;9.890;2023-05-02T01:52:08;10.40;99.90
20722;DHT22;10522;52.198;9.890;2023-05-02T01:54:36;10.30;99.90
20722;DHT22;10522;52.198;9.890;2023-05-02T01:57:05;10.30;99.90
20722;DHT22;10522;52.198;9.890;2023-05-02T01:59:32;10.30;99.90
20722;DHT22;10522;52.198;9.890;2023-05-02T02:01:58;10.40;99.90
20722;DHT22;10522;52.198;9.890;2023-05-02T02:04:26;10.30;99.90
20722;DHT22;10522;52.198;9.890;2023-05-02T02:06:59;10.40;99.90
20722;DHT22;10522;52.198;9.890;2023-05-02T02:09:25;10.50;99.90
20722;DHT22;10522;52.198;9.890;2023-05-02T02:14:42;10.40;99.90
20722;DHT22;10522;52.198;9.890;2023-05-02T02:17:31;10.60;99.90
20722;DHT22;10522;52.198;9.890;2023-05-02T02:20:03;10.50;99.90
20722;DHT22;10522;52.198;9.890;2023-05-02T02:22:30;10.60;99.90
20722;DHT22;10522;52.198;9.890;2023-05-02T02:24:58;10.60;99.90
20722;DHT22;10522;52.198;9.890;2023-05-02T02:27:25;10.70;99.90
20722;DHT22;10522;52.198;9.890;2023-05-02T02:29:51;10.70;99.90
20722;DHT22;10522;52.198;9.890;2023-05-02T02:32:16;10.60;99.90
20722;DHT22;10522;52.198;9.890;2023-05-02T02:34:42;10.60;99.90
20722;DHT22;10522;52.198;9.890;2023-05-02T02:37:17;10.60;99.90
20722;DHT22;10522;52.198;9.890;2023-05-02T02:40:11;10.50;99.90
20722;DHT22;10522;52.198;9.890;2023-05-02T02:48:33;10.40;99.90
20722;DHT22;10522;52.198;9.890;2023-05-02T02:56:43;10.30;99.90
20722;DHT22;10522;52.198;9.890;2023-05-02T02:59:22;10.30;99.90
20722;DHT22;10522;52.198;9.890;2023-05-02T03:02:06;10.40;99.90
20722;DHT22;10522;52.198;9.890;2023-05-02T03:04:45;10.40;99.90
20722;DHT22;10522;52.198;9.890;2023-05-02T03:07:11;10.30;99.90
20722;DHT22;10522;52.198;9.890;2023-05-02T03:09:41;10.30;99.90
20722;DHT22;10522;52.198;9.890;2023-05-02T03:12:06;10.20;99.90
20722;DHT22;10522;52.198;9.890;2023-05-02T03:14:32;10.40;99.90
20722;DHT22;10522;52.198;9.890;2023-05-02T03:16:58;10.40;99.90
20722;DHT22;10522;52.198;9.890;2023-05-02T03:19:23;10.40;99.90
20722;DHT22;10522;52.198;9.890;2023-05-02T03:21:49;10.40;99.90
20722;DHT22;10522;52.198;9.890;2023-05-02T03:24:14;10.50;99.90
20722;DHT22;10522;52.198;9.890;2023-05-02T03:26:40;10.50;99.90
20722;DHT22;10522;52.198;9.890;2023-05-02T03:29:06;10.50;99.90
20722;DHT22;10522;52.198;9.890;2023-05-02T03:31:32;10.50;99.90
20722;DHT22;10522;52.198;9.890;2023-05-02T03:33:58;10.50;99.90
20722;DHT22;10522;52.198;9.890;2023-05-02T03:36:23;10.60;99.90
20722;DHT22;10522;52.198;9.890;2023-05-02T03:38:49;10.50;99.90
20722;DHT22;10522;52.198;9.890;2023-05-02T03:41:15;10.50;99.90
20722;DHT22;10522;52.198;9.890;2023-05-02T03:43:40;10.50;99.90
20722;DHT22;10522;52.198;9.890;2023-05-02T03:46:07;10.50;99.90
20722;DHT22;10522;52.198;9.890;2023-05-02T03:48:34;10.50;99.90
20722;DHT22;10522;52.198;9.890;2023-05-02T03:51:01;10.60;99.90
20722;DHT22;10522;52.198;9.890;2023-05-02T03:53:27;10.50;99.90
20722;DHT22;10522;52.198;9.890;2023-05-02T03:55:53;10.60;99.90
20722;DHT22;10522;52.198;9.890;2023-05-02T03:58:19;10.50;99.90
20722;DHT22;10522;52.198;9.890;2023-05-02T04:00:45;10.50;99.90
20722;DHT22;10522;52.198;9.890;2023-05-02T04:03:11;10.50;99.90
20722;DHT22;10522;52.198;9.890;2023-05-02T04:05:36;10.50;99.90
20722;DHT22;10522;52.198;9.890;2023-05-02T04:08:02;10.50;99.90
20722;DHT22;10522;52.198;9.890;2023-05-02T04:10:28;10.40;99.90
20722;DHT22;10522;52.198;9.890;2023-05-02T04:12:53;10.50;99.90
20722;DHT22;10522;52.198;9.890;2023-05-02T04:15:19;10.50;99.90
20722;DHT22;10522;52.198;9.890;2023-05-02T04:17:44;10.50;99.90
20722;DHT22;10522;52.198;9.890;2023-05-02T04:20:11;10.50;99.90
20722;DHT22;10522;52.198;9.890;2023-05-02T04:22:36;10.50;99.90
20722;DHT22;10522;52.198;9.890;2023-05-02T04:25:07;10.50;99.90
20722;DHT22;10522;52.198;9.890;2023-05-02T04:27:33;10.60;99.90
20722;DHT22;10522;52.198;9.890;2023-05-02T04:29:58;10.60;99.90
20722;DHT22;10522;52.198;9.890;2023-05-02T04:32:24;10.60;99.90
20722;DHT22;10522;52.198;9.890;2023-05-02T04:34:49;10.60;99.90
20722;DHT22;10522;52.198;9.890;2023-05-02T04:37:15;10.60;99.90
20722;DHT22;10522;52.198;9.890;2023-05-02T04:39:41;10.60;99.90
20722;DHT22;10522;52.198;9.890;2023-05-02T04:42:06;10.60;99.90
20722;DHT22;10522;52.198;9.890;2023-05-02T04:44:32;10.60;99.90
20722;DHT22;10522;52.198;9.890;2023-05-02T04:46:57;10.70;99.90
20722;DHT22;10522;52.198;9.890;2023-05-02T04:49:23;10.70;99.90
20722;DHT22;10522;52.198;9.890;2023-05-02T04:51:49;10.70;99.90
20722;DHT22;10522;52.198;9.890;2023-05-02T04:54:16;10.70;99.90
20722;DHT22;10522;52.198;9.890;2023-05-02T04:56:41;10.70;99.90
20722;DHT22;10522;52.198;9.890;2023-05-02T04:59:07;10.70;99.90
20722;DHT22;10522;52.198;9.890;2023-05-02T05:01:33;10.70;99.90
20722;DHT22;10522;52.198;9.890;2023-05-02T05:03:58;10.70;99.90
20722;DHT22;10522;52.198;9.890;2023-05-02T05:06:24;10.60;99.90
20722;DHT22;10522;52.198;9.890;2023-05-02T05:08:50;10.70;99.90
20722;DHT22;10522;52.198;9.890;2023-05-02T05:11:16;10.80;99.90
20722;DHT22;10522;52.198;9.890;2023-05-02T05:13:41;10.80;99.90
20722;DHT22;10522;52.198;9.890;2023-05-02T05:16:07;10.80;99.90
20722;DHT22;10522;52.198;9.890;2023-05-02T05:18:33;10.80;99.90
20722;DHT22;10522;52.198;9.890;2023-05-02T05:21:09;10.80;99.90
20722;DHT22;10522;52.198;9.890;2023-05-02T05:23:35;10.80;99.90
20722;DHT22;10522;52.198;9.890;2023-05-02T05:26:11;10.80;99.90
20722;DHT22;10522;52.198;9.890;2023-05-02T05:28:37;10.90;99.90
20722;DHT22;10522;52.198;9.890;2023-05-02T05:31:13;10.90;99.90
20722;DHT22;10522;52.198;9.890;2023-05-02T05:33:41;11.00;99.90
20722;DHT22;10522;52.198;9.890;2023-05-02T05:36:08;11.00;99.90
20722;DHT22;10522;52.198;9.890;2023-05-02T05:38:35;10.90;99.90
20722;DHT22;10522;52.198;9.890;2023-05-02T05:41:01;10.80;99.90
20722;DHT22;10522;52.198;9.890;2023-05-02T05:43:27;10.80;99.90
20722;DHT22;10522;52.198;9.890;2023-05-02T05:45:54;10.70;99.90
20722;DHT22;10522;52.198;9.890;2023-05-02T05:48:20;10.80;99.90
20722;DHT22;10522;52.198;9.890;2023-05-02T05:50:46;10.70;99.90
20722;DHT22;10522;52.198;9.890;2023-05-02T05:53:12;10.80;99.90
20722;DHT22;10522;52.198;9.890;2023-05-02T05:55:38;10.70;99.90
20722;DHT22;10522;52.198;9.890;2023-05-02T05:58:04;10.70;99.90
20722;DHT22;10522;52.198;9.890;2023-05-02T06:00:34;10.60;99.90
20722;DHT22;10522;52.198;9.890;2023-05-02T06:03:00;10.60;99.90
20722;DHT22;10522;52.198;9.890;2023-05-02T06:05:26;10.20;99.90
20722;DHT22;10522;52.198;9.890;2023-05-02T06:07:52;9.90;99.90
20722;DHT22;10522;52.198;9.890;2023-05-02T06:10:21;9.80;99.90
20722;DHT22;10522;52.198;9.890;2023-05-02T06:12:47;9.80;99.90
20722;DHT22;10522;52.198;9.890;2023-05-02T06:15:13;9.70;99.90
20722;DHT22;10522;52.198;9.890;2023-05-02T06:17:42;9.50;99.90
20722;DHT22;10522;52.198;9.890;2023-05-02T06:20:08;9.30;99.90
20722;DHT22;10522;52.198;9.890;2023-05-02T06:22:34;9.10;99.90
20722;DHT22;10522;52.198;9.890;2023-05-02T06:24:59;9.10;99.90
20722;DHT22;10522;52.198;9.890;2023-05-02T06:27:25;9.00;99.90
20722;DHT22;10522;52.198;9.890;2023-05-02T06:29:51;9.00;99.90
20722;DHT22;10522;52.198;9.890;2023-05-02T06:32:17;9.00;99.90
20722;DHT22;10522;52.198;9.890;2023-05-02T06:34:43;9.10;99.90
20722;DHT22;10522;52.198;9.890;2023-05-02T06:37:09;9.00;99.90
20722;DHT22;10522;52.198;9.890;2023-05-02T06:39:35;9.00;99.90
20722;DHT22;10522;52.198;9.890;2023-05-02T06:42:01;9.00;99.90
20722;DHT22;10522;52.198;9.890;2023-05-02T06:44:27;9.20;99.90
20722;DHT22;10522;52.198;9.890;2023-05-02T06:46:53;9.10;99.90
20722;DHT22;10522;52.198;9.890;2023-05-02T06:49:20;9.10;99.90
20722;DHT22;10522;52.198;9.890;2023-05-02T06:51:47;9.10;99.90
20722;DHT22;10522;52.198;9.890;2023-05-02T06:54:12;9.10;99.90
20722;DHT22;10522;52.198;9.890;2023-05-02T06:56:40;9.10;99.90
20722;DHT22;10522;52.198;9.890;2023-05-02T06:59:06;9.10;99.90
20722;DHT22;10522;52.198;9.890;2023-05-02T07:01:35;9.10;99.90
20722;DHT22;10522;52.198;9.890;2023-05-02T07:04:01;9.20;99.90
20722;DHT22;10522;52.198;9.890;2023-05-02T07:06:31;9.20;99.90
20722;DHT22;10522;52.198;9.890;2023-05-02T07:08:57;9.30;99.90
20722;DHT22;10522;52.198;9.890;2023-05-02T07:11:23;9.40;99.90
20722;DHT22;10522;52.198;9.890;2023-05-02T07:13:49;9.40;99.90
20722;DHT22;10522;52.198;9.890;2023-05-02T07:16:15;9.40;99.90
20722;DHT22;10522;52.198;9.890;2023-05-02T07:18:42;9.60;99.90
20722;DHT22;10522;52.198;9.890;2023-05-02T07:21:10;9.60;99.90
20722;DHT22;10522;52.198;9.890;2023-05-02T07:23:36;9.50;99.90
20722;DHT22;10522;52.198;9.890;2023-05-02T07:26:02;9.70;99.90
20722;DHT22;10522;52.198;9.890;2023-05-02T07:28:29;9.60;99.90
20722;DHT22;10522;52.198;9.890;2023-05-02T07:30:55;9.50;99.90
20722;DHT22;10522;52.198;9.890;2023-05-02T07:33:21;9.70;99.90
20722;DHT22;10522;52.198;9.890;2023-05-02T07:35:48;9.50;99.90
20722;DHT22;10522;52.198;9.890;2023-05-02T07:38:14;9.80;99.90
20722;DHT22;10522;52.198;9.890;2023-05-02T07:40:40;9.70;99.90
20722;DHT22;10522;52.198;9.890;2023-05-02T07:43:06;9.80;99.90
20722;DHT22;10522;52.198;9.890;2023-05-02T07:45:32;9.90;99.90
20722;DHT22;10522;52.198;9.890;2023-05-02T07:47:58;9.90;99.90
20722;DHT22;10522;52.198;9.890;2023-05-02T07:50:24;9.80;99.90
20722;DHT22;10522;52.198;9.890;2023-05-02T07:52:50;9.80;99.90
20722;DHT22;10522;52.198;9.890;2023-05-02T07:55:15;9.70;99.90
20722;DHT22;10522;52.198;9.890;2023-05-02T07:57:41;9.60;99.90
20722;DHT22;10522;52.198;9.890;2023-05-02T08:00:08;9.70;99.90
20722;DHT22;10522;52.198;9.890;2023-05-02T08:02:35;9.80;99.90
20722;DHT22;10522;52.198;9.890;2023-05-02T08:05:01;9.70;99.90
20722;DHT22;10522;52.198;9.890;2023-05-02T08:07:27;9.80;99.90
20722;DHT22;10522;52.198;9.890;2023-05-02T08:09:53;9.90;99.90
20722;DHT22;10522;52.198;9.890;2023-05-02T08:12:18;9.80;99.90
20722;DHT22;10522;52.198;9.890;2023-05-02T08:14:44;10.00;99.90
20722;DHT22;10522;52.198;9.890;2023-05-02T08:17:10;10.00;99.90
20722;DHT22;10522;52.198;9.890;2023-05-02T08:19:36;10.10;99.90
20722;DHT22;10522;52.198;9.890;2023-05-02T08:22:02;10.00;99.90
20722;DHT22;10522;52.198;9.890;2023-05-02T08:24:28;9.90;99.90
20722;DHT22;10522;52.198;9.890;2023-05-02T08:26:55;9.70;99.90
20722;DHT22;10522;52.198;9.890;2023-05-02T08:29:22;9.80;99.90
20722;DHT22;10522;52.198;9.890;2023-05-02T08:31:48;9.90;99.90
20722;DHT22;10522;52.198;9.890;2023-05-02T08:34:15;9.90;99.90
20722;DHT22;10522;52.198;9.890;2023-05-02T08:36:42;9.70;99.90
20722;DHT22;10522;52.198;9.890;2023-05-02T08:39:08;9.70;99.90
20722;DHT22;10522;52.198;9.890;2023-05-02T08:41:37;9.60;99.90
20722;DHT22;10522;52.198;9.890;2023-05-02T08:44:05;9.60;99.90
20722;DHT22;10522;52.198;9.890;2023-05-02T08:46:34;9.60;99.90
20722;DHT22;10522;52.198;9.890;2023-05-02T08:49:02;9.60;99.90
20722;DHT22;10522;52.198;9.890;2023-05-02T08:51:29;9.60;99.90
20722;DHT22;10522;52.198;9.890;2023-05-02T08:53:57;9.50;99.90
20722;DHT22;10522;52.198;9.890;2023-05-02T08:56:24;9.50;99.90
20722;DHT22;10522;52.198;9.890;2023-05-02T08:58:53;9.50;99.90
20722;DHT22;10522;52.198;9.890;2023-05-02T09:01:23;9.50;99.90
20722;DHT22;10522;52.198;9.890;2023-05-02T09:03:56;9.40;99.90
20722;DHT22;10522;52.198;9.890;2023-05-02T09:06:26;9.40;99.90
20722;DHT22;10522;52.198;9.890;2023-05-02T09:08:54;9.50;99.90
20722;DHT22;10522;52.198;9.890;2023-05-02T09:11:20;9.70;99.90
20722;DHT22;10522;52.198;9.890;2023-05-02T09:13:50;9.70;99.90
20722;DHT22;10522;52.198;9.890;2023-05-02T09:16:17;9.80;99.90
20722;DHT22;10522;52.198;9.890;2023-05-02T09:18:46;9.90;99.90
20722;DHT22;10522;52.198;9.890;2023-05-02T09:21:17;9.70;99.90
20722;DHT22;10522;52.198;9.890;2023-05-02T09:23:47;9.80;99.90
20722;DHT22;10522;52.198;9.890;2023-05-02T09:26:21;9.60;99.90
20722;DHT22;10522;52.198;9.890;2023-05-02T09:28:51;9.60;99.90
20722;DHT22;10522;52.198;9.890;2023-05-02T09:31:19;9.60;99.90
20722;DHT22;10522;52.198;9.890;2023-05-02T09:33:48;9.60;99.90
20722;DHT22;10522;52.198;9.890;2023-05-02T09:36:18;9.30;99.90
20722;DHT22;10522;52.198;9.890;2023-05-02T09:38:47;9.30;99.90
20722;DHT22;10522;52.198;9.890;2023-05-02T09:41:14;9.30;99.90
20722;DHT22;10522;52.198;9.890;2023-05-02T09:43:54;9.30;99.90
20722;DHT22;10522;52.198;9.890;2023-05-02T09:46:39;9.20;99.90
20722;DHT22;10522;52.198;9.890;2023-05-02T09:49:04;9.10;99.90
20722;DHT22;10522;52.198;9.890;2023-05-02T09:51:30;9.00;99.90
20722;DHT22;10522;52.198;9.890;2023-05-02T09:53:56;9.00;99.90
20722;DHT22;10522;52.198;9.890;2023-05-02T09:56:21;8.90;99.90
20722;DHT22;10522;52.198;9.890;2023-05-02T09:58:47;9.10;99.90
20722;DHT22;10522;52.198;9.890;2023-05-02T10:01:17;9.00;99.90
20722;DHT22;10522;52.198;9.890;2023-05-02T10:03:46;9.00;99.90
20722;DHT22;10522;52.198;9.890;2023-05-02T10:06:13;9.00;99.90
20722;DHT22;10522;52.198;9.890;2023-05-02T10:08:41;9.10;99.90
20722;DHT22;10522;52.198;9.890;2023-05-02T10:11:08;9.20;99.90
20722;DHT22;10522;52.198;9.890;2023-05-02T10:13:37;9.20;99.90
20722;DHT22;10522;52.198;9.890;2023-05-02T10:16:05;9.30;99.90
20722;DHT22;10522;52.198;9.890;2023-05-02T10:18:52;9.40;99.90
20722;DHT22;10522;52.198;9.890;2023-05-02T10:21:25;9.40;99.90
20722;DHT22;10522;52.198;9.890;2023-05-02T10:23:52;9.50;99.90
20722;DHT22;10522;52.198;9.890;2023-05-02T10:26:18;9.50;99.90
20722;DHT22;10522;52.198;9.890;2023-05-02T10:28:46;9.60;99.90
20722;DHT22;10522;52.198;9.890;2023-05-02T10:31:13;9.70;99.90
20722;DHT22;10522;52.198;9.890;2023-05-02T10:33:40;9.80;99.90
20722;DHT22;10522;52.198;9.890;2023-05-02T10:36:10;9.80;99.90
20722;DHT22;10522;52.198;9.890;2023-05-02T10:38:39;9.90;99.90
20722;DHT22;10522;52.198;9.890;2023-05-02T10:41:12;9.80;99.90
20722;DHT22;10522;52.198;9.890;2023-05-02T10:43:39;9.70;99.90
20722;DHT22;10522;52.198;9.890;2023-05-02T10:46:35;9.60;99.90
20722;DHT22;10522;52.198;9.890;2023-05-02T10:51:31;9.80;99.90
20722;DHT22;10522;52.198;9.890;2023-05-02T11:02:00;10.10;99.90
20722;DHT22;10522;52.198;9.890;2023-05-02T11:05:00;10.30;99.90
20722;DHT22;10522;52.198;9.890;2023-05-02T11:07:27;10.30;99.90
20722;DHT22;10522;52.198;9.890;2023-05-02T11:09:52;10.20;99.90
20722;DHT22;10522;52.198;9.890;2023-05-02T11:12:47;10.30;99.90
20722;DHT22;10522;52.198;9.890;2023-05-02T11:15:52;10.60;99.90
20722;DHT22;10522;52.198;9.890;2023-05-02T11:18:06;10.80;99.90
20722;DHT22;10522;52.198;9.890;2023-05-02T11:20:34;11.00;99.90
20722;DHT22;10522;52.198;9.890;2023-05-02T11:25:48;11.00;99.90
20722;DHT22;10522;52.198;9.890;2023-05-02T11:28:37;10.80;99.90
20722;DHT22;10522;52.198;9.890;2023-05-02T11:31:04;10.80;99.90
20722;DHT22;10522;52.198;9.890;2023-05-02T11:33:30;10.80;99.90
20722;DHT22;10522;52.198;9.890;2023-05-02T11:35:56;11.00;99.90
20722;DHT22;10522;52.198;9.890;2023-05-02T11:38:23;11.10;99.90
20722;DHT22;10522;52.198;9.890;2023-05-02T11:40:51;11.20;99.90
20722;DHT22;10522;52.198;9.890;2023-05-02T11:43:18;11.30;99.90
20722;DHT22;10522;52.198;9.890;2023-05-02T11:45:44;11.00;99.90
20722;DHT22;10522;52.198;9.890;2023-05-02T11:48:15;11.40;99.90
20722;DHT22;10522;52.198;9.890;2023-05-02T11:50:47;11.20;99.90
20722;DHT22;10522;52.198;9.890;2023-05-02T11:53:15;11.10;99.90
20722;DHT22;10522;52.198;9.890;2023-05-02T11:55:54;11.00;99.90
20722;DHT22;10522;52.198;9.890;2023-05-02T11:58:25;11.30;99.90
20722;DHT22;10522;52.198;9.890;2023-05-02T12:00:54;11.50;99.90
20722;DHT22;10522;52.198;9.890;2023-05-02T12:03:31;11.50;99.90
20722;DHT22;10522;52.198;9.890;2023-05-02T12:06:07;11.40;99.90
20722;DHT22;10522;52.198;9.890;2023-05-02T12:08:34;11.30;99.90
20722;DHT22;10522;52.198;9.890;2023-05-02T12:10:59;11.30;99.90
20722;DHT22;10522;52.198;9.890;2023-05-02T12:13:26;11.30;99.90
20722;DHT22;10522;52.198;9.890;2023-05-02T12:15:53;11.20;99.90
20722;DHT22;10522;52.198;9.890;2023-05-02T12:18:20;11.20;99.90
20722;DHT22;10522;52.198;9.890;2023-05-02T12:20:49;11.20;99.90
20722;DHT22;10522;52.198;9.890;2023-05-02T12:23:17;11.40;99.90
20722;DHT22;10522;52.198;9.890;2023-05-02T12:25:42;11.30;99.90
20722;DHT22;10522;52.198;9.890;2023-05-02T12:28:09;11.60;99.90
20722;DHT22;10522;52.198;9.890;2023-05-02T12:30:36;11.60;99.90
20722;DHT22;10522;52.198;9.890;2023-05-02T12:33:06;11.40;99.90
20722;DHT22;10522;52.198;9.890;2023-05-02T12:35:32;11.50;99.90
20722;DHT22;10522;52.198;9.890;2023-05-02T12:38:10;11.40;99.90
20722;DHT22;10522;52.198;9.890;2023-05-02T12:40:36;11.30;99.90
20722;DHT22;10522;52.198;9.890;2023-05-02T12:43:03;11.50;99.90
20722;DHT22;10522;52.198;9.890;2023-05-02T12:45:31;11.80;99.90
20722;DHT22;10522;52.198;9.890;2023-05-02T12:48:16;11.70;99.90
20722;DHT22;10522;52.198;9.890;2023-05-02T12:50:42;11.60;99.90
20722;DHT22;10522;52.198;9.890;2023-05-02T12:53:08;11.60;99.90
20722;DHT22;10522;52.198;9.890;2023-05-02T12:55:34;11.20;99.90
20722;DHT22;10522;52.198;9.890;2023-05-02T12:58:04;11.40;99.90
20722;DHT22;10522;52.198;9.890;2023-05-02T13:00:30;11.50;99.90
20722;DHT22;10522;52.198;9.890;2023-05-02T13:02:56;11.60;99.90
20722;DHT22;10522;52.198;9.890;2023-05-02T13:05:22;11.40;99.90
20722;DHT22;10522;52.198;9.890;2023-05-02T13:07:47;11.40;99.90
20722;DHT22;10522;52.198;9.890;2023-05-02T13:10:13;11.40;99.90
20722;DHT22;10522;52.198;9.890;2023-05-02T13:12:42;11.40;99.90
20722;DHT22;10522;52.198;9.890;2023-05-02T13:15:08;11.20;99.90
20722;DHT22;10522;52.198;9.890;2023-05-02T13:17:34;11.20;99.90
20722;DHT22;10522;52.198;9.890;2023-05-02T13:20:00;11.40;99.90
20722;DHT22;10522;52.198;9.890;2023-05-02T13:22:26;12.30;99.90
20722;DHT22;10522;52.198;9.890;2023-05-02T13:24:52;12.90;99.90
20722;DHT22;10522;52.198;9.890;2023-05-02T13:27:18;13.00;99.90
20722;DHT22;10522;52.198;9.890;2023-05-02T13:29:44;13.30;99.90
20722;DHT22;10522;52.198;9.890;2023-05-02T13:32:10;13.70;99.90
20722;DHT22;10522;52.198;9.890;2023-05-02T13:34:36;14.30;99.90
20722;DHT22;10522;52.198;9.890;2023-05-02T13:37:02;14.70;99.90
20722;DHT22;10522;52.198;9.890;2023-05-02T13:39:28;13.70;99.90
20722;DHT22;10522;52.198;9.890;2023-05-02T13:41:53;13.20;99.90
20722;DHT22;10522;52.198;9.890;2023-05-02T13:44:19;12.70;99.90
20722;DHT22;10522;52.198;9.890;2023-05-02T13:46:44;12.50;99.90
20722;DHT22;10522;52.198;9.890;2023-05-02T13:49:10;12.10;99.90
20722;DHT22;10522;52.198;9.890;2023-05-02T13:51:36;12.20;99.90
20722;DHT22;10522;52.198;9.890;2023-05-02T13:54:01;12.90;99.90
20722;DHT22;10522;52.198;9.890;2023-05-02T13:56:27;12.90;99.90
20722;DHT22;10522;52.198;9.890;2023-05-02T13:58:52;12.50;99.90
20722;DHT22;10522;52.198;9.890;2023-05-02T14:01:18;12.40;99.90
20722;DHT22;10522;52.198;9.890;2023-05-02T14:03:44;12.60;99.90
20722;DHT22;10522;52.198;9.890;2023-05-02T14:06:10;12.70;99.90
20722;DHT22;10522;52.198;9.890;2023-05-02T14:08:35;12.30;99.90
20722;DHT22;10522;52.198;9.890;2023-05-02T14:11:01;12.70;99.90
20722;DHT22;10522;52.198;9.890;2023-05-02T14:13:27;13.30;99.90
20722;DHT22;10522;52.198;9.890;2023-05-02T14:15:53;13.50;99.90
20722;DHT22;10522;52.198;9.890;2023-05-02T14:18:19;13.70;99.90
20722;DHT22;10522;52.198;9.890;2023-05-02T14:20:45;13.70;99.90
20722;DHT22;10522;52.198;9.890;2023-05-02T14:23:11;13.80;99.90
20722;DHT22;10522;52.198;9.890;2023-05-02T14:25:36;13.30;99.90
20722;DHT22;10522;52.198;9.890;2023-05-02T14:28:03;12.80;99.90
20722;DHT22;10522;52.198;9.890;2023-05-02T14:30:29;12.60;99.90
20722;DHT22;10522;52.198;9.890;2023-05-02T14:32:55;12.20;99.90
20722;DHT22;10522;52.198;9.890;2023-05-02T14:35:21;11.90;99.90
20722;DHT22;10522;52.198;9.890;2023-05-02T14:37:47;11.70;99.90
20722;DHT22;10522;52.198;9.890;2023-05-02T14:40:13;11.70;99.90
20722;DHT22;10522;52.198;9.890;2023-05-02T14:42:39;11.70;99.90
20722;DHT22;10522;52.198;9.890;2023-05-02T14:45:06;11.80;99.90
20722;DHT22;10522;52.198;9.890;2023-05-02T14:47:32;11.70;99.90
20722;DHT22;10522;52.198;9.890;2023-05-02T14:49:58;11.70;99.90
20722;DHT22;10522;52.198;9.890;2023-05-02T14:52:23;11.50;99.90
20722;DHT22;10522;52.198;9.890;2023-05-02T14:54:49;11.60;99.90
20722;DHT22;10522;52.198;9.890;2023-05-02T14:57:15;11.70;99.90
20722;DHT22;10522;52.198;9.890;2023-05-02T14:59:40;12.10;99.90
20722;DHT22;10522;52.198;9.890;2023-05-02T15:02:06;12.10;99.90
20722;DHT22;10522;52.198;9.890;2023-05-02T15:04:32;12.10;99.90
20722;DHT22;10522;52.198;9.890;2023-05-02T15:07:01;11.90;99.90
20722;DHT22;10522;52.198;9.890;2023-05-02T15:09:26;12.40;99.90
20722;DHT22;10522;52.198;9.890;2023-05-02T15:11:53;12.30;99.90
20722;DHT22;10522;52.198;9.890;2023-05-02T15:14:19;12.40;99.90
20722;DHT22;10522;52.198;9.890;2023-05-02T15:16:45;12.70;99.90
20722;DHT22;10522;52.198;9.890;2023-05-02T15:19:10;12.30;99.90
20722;DHT22;10522;52.198;9.890;2023-05-02T15:21:36;11.90;99.90
20722;DHT22;10522;52.198;9.890;2023-05-02T15:24:02;11.70;99.90
20722;DHT22;10522;52.198;9.890;2023-05-02T15:26:28;11.60;99.90
20722;DHT22;10522;52.198;9.890;2023-05-02T15:28:54;11.40;99.90
20722;DHT22;10522;52.198;9.890;2023-05-02T15:31:21;11.20;99.90
20722;DHT22;10522;52.198;9.890;2023-05-02T15:33:46;11.00;99.90
20722;DHT22;10522;52.198;9.890;2023-05-02T15:36:12;11.10;99.90
20722;DHT22;10522;52.198;9.890;2023-05-02T15:38:38;11.10;99.90
20722;DHT22;10522;52.198;9.890;2023-05-02T15:41:07;11.10;99.90
20722;DHT22;10522;52.198;9.890;2023-05-02T15:43:34;10.80;99.90
20722;DHT22;10522;52.198;9.890;2023-05-02T15:46:00;10.90;99.90
20722;DHT22;10522;52.198;9.890;2023-05-02T15:48:27;10.90;99.90
20722;DHT22;10522;52.198;9.890;2023-05-02T15:50:53;11.00;99.90
20722;DHT22;10522;52.198;9.890;2023-05-02T15:53:19;10.90;99.90
20722;DHT22;10522;52.198;9.890;2023-05-02T15:55:51;10.90;99.90
20722;DHT22;10522;52.198;9.890;2023-05-02T15:58:17;10.70;99.90
20722;DHT22;10522;52.198;9.890;2023-05-02T16:00:43;10.70;99.90
20722;DHT22;10522;52.198;9.890;2023-05-02T16:03:09;10.60;99.90
20722;DHT22;10522;52.198;9.890;2023-05-02T16:05:36;10.60;99.90
20722;DHT22;10522;52.198;9.890;2023-05-02T16:08:03;10.70;99.90
20722;DHT22;10522;52.198;9.890;2023-05-02T16:10:29;10.60;99.90
20722;DHT22;10522;52.198;9.890;2023-05-02T16:12:55;10.70;99.90
20722;DHT22;10522;52.198;9.890;2023-05-02T16:15:20;10.50;99.90
20722;DHT22;10522;52.198;9.890;2023-05-02T16:17:46;10.60;99.90